Terminal Aerodrome Forecast
Issued by NWS Portland, OR

Home | Current Version | Previous Version | Text Only | Print | Product List | Glossary On
Versions: 1 2 3 4 5 6 7 8 9 10 11 12 13 14 15 16 17 18 19 20 21 22 23 24 25 26 27 28
000
FTUS46 KPQR 190521
TAFHIO
TAF
KHIO 190521Z 1906/2006 10009KT 4SM -RA BR SCT008 BKN012 OVC035
     FM190800 18015G25KT 2SM RA BR BKN008 OVC015
     FM191200 20012KT 5SM -SHRA BR SCT008 BKN018 OVC035
     FM191800 24006KT P6SM VCSH SCT020 BKN035 BKN060=

USA.gov is the U.S. government's official web portal to all federal, state and local government web resources and services.